Ahmedabad International Airport

Airport
ICAO code: 
VAAH
Summary
ICAO Region: 
APAC
Territory: 
Location: 
Ahmedabad, Gujarat,
Coordinates: 
Aerial View: 
23° 4' 28.505" N, 72° 37' 25.153" E
Metar
Observation
VAAH 082230Z 03004KT 4000 HZ FEW080 18/10 Q1015 NOSIG
Station
Ahmadabad
Date/Time
2021-12-08 22:30:00
Wind direction
30°
Wind speed
04 kts
Lowest cloud amount
few clouds
Temperature
18°C
Dew point
10°C
Humidity
59%
QNH
1015 hPa
Weather condition
n/a

Description

Sardar Vallabhbhai Patel International Airport is located in the State of Gujarat 8 km from the Ahmedabad railway station and services the cities of Ahmedabad and Gandhinagar.

Climatology

Hot, semi-arid/Steppe climate (Köppen climate classification BSh) - hot, sometimes extremely hot summers and mild to warm winters, with low annual precipitation.

Runways

Designator Length Width Surface Rops
5/23 3489 46 PEM Yes/Yes
Airport map: 
Aerial View: 

SKYbrary Partners:

Safety knowledge contributed by: